createdAt,value
2018-08-12T00:01:03.415Z,79.28
2018-08-12T00:03:35.987Z,79.52
2018-08-12T00:06:08.363Z,79.48
2018-08-12T00:08:41.472Z,80.14
2018-08-12T00:11:14.859Z,80.48
2018-08-12T00:13:46.719Z,79.34
2018-08-12T00:16:17.101Z,79.47
2018-08-12T00:18:47.879Z,79.16
2018-08-12T00:21:20.704Z,78.88
2018-08-12T00:23:51.131Z,78.96
2018-08-12T00:26:21.410Z,79.47
2018-08-12T00:28:56.282Z,78.81
2018-08-12T00:31:27.873Z,79.26
2018-08-12T00:33:58.407Z,79.02
2018-08-12T00:36:52.795Z,79.65
2018-08-12T00:39:23.225Z,80.38
2018-08-12T00:41:54.004Z,80.26
2018-08-12T00:44:24.280Z,79.77
2018-08-12T00:46:57.480Z,80.46
2018-08-12T00:49:29.240Z,80.68
2018-08-12T00:51:59.572Z,80.66
2018-08-12T00:54:39.000Z,80.41
2018-08-12T00:57:12.603Z,80.76
2018-08-12T00:59:46.234Z,80.49
2018-08-12T01:02:21.848Z,80.18
2018-08-12T01:04:53.307Z,79.56
2018-08-12T01:07:28.118Z,80.33
2018-08-12T01:09:59.105Z,80.65
2018-08-12T01:12:30.009Z,79.90
2018-08-12T01:15:01.527Z,80.25
2018-08-12T01:17:34.471Z,80.54
2018-08-12T01:22:52.499Z,81.36
2018-08-12T01:25:27.550Z,81.12
2018-08-12T01:27:59.047Z,80.81
2018-08-12T01:30:30.579Z,80.79
2018-08-12T01:33:03.118Z,81.19
2018-08-12T01:35:34.458Z,80.87
2018-08-12T01:38:09.297Z,80.69
2018-08-12T01:40:43.710Z,81.22
2018-08-12T01:43:15.190Z,81.54
2018-08-12T01:45:46.855Z,82.01
2018-08-12T01:48:17.890Z,82.67
2018-08-12T01:50:50.985Z,80.91
2018-08-12T01:53:23.262Z,81.07
2018-08-12T01:55:57.166Z,81.82
2018-08-12T01:58:29.222Z,81.10
2018-08-12T02:01:02.638Z,81.10
2018-08-12T02:03:34.853Z,81.24
2018-08-12T02:06:05.944Z,81.20
2018-08-12T02:08:36.618Z,81.20
2018-08-12T02:11:08.376Z,82.26
2018-08-12T02:13:40.768Z,82.71
2018-08-12T02:16:15.577Z,82.44
2018-08-12T02:18:48.870Z,82.83
2018-08-12T02:21:20.855Z,82.43
2018-08-12T02:23:52.896Z,82.60
2018-08-12T02:26:24.250Z,83.05
2018-08-12T02:28:58.468Z,83.59
2018-08-12T02:31:29.696Z,83.49
2018-08-12T02:34:01.498Z,83.98
2018-08-12T02:36:31.812Z,83.31
2018-08-12T02:39:02.714Z,83.42
2018-08-12T02:41:34.104Z,83.97
2018-08-12T02:44:10.100Z,84.02
2018-08-12T02:46:43.911Z,83.33
2018-08-12T02:49:17.364Z,84.22
2018-08-12T02:51:50.938Z,83.94
2018-08-12T02:54:23.398Z,83.46
2018-08-12T02:56:56.058Z,82.93
2018-08-12T02:59:27.358Z,83.44
2018-08-12T03:02:03.644Z,83.59
2018-08-12T03:04:33.742Z,83.74
2018-08-12T03:07:04.238Z,83.96
2018-08-12T03:09:36.635Z,84.70
2018-08-12T03:12:10.771Z,84.34
2018-08-12T03:14:45.235Z,83.40
2018-08-12T03:17:18.966Z,83.78
2018-08-12T03:19:52.786Z,84.24
2018-08-12T03:22:24.913Z,84.27
2018-08-12T03:24:58.544Z,83.92
2018-08-12T03:27:29.603Z,84.28
2018-08-12T03:30:01.066Z,83.64
2018-08-12T03:32:31.430Z,84.50
2018-08-12T03:35:02.062Z,83.37
2018-08-12T03:37:35.356Z,83.45
2018-08-12T03:40:09.832Z,83.13
2018-08-12T03:42:43.990Z,83.31
2018-08-12T03:45:16.872Z,83.85
2018-08-12T03:47:49.604Z,84.02
2018-08-12T03:50:22.155Z,84.59
2018-08-12T03:52:56.548Z,84.19
2018-08-12T03:55:29.504Z,83.50
2018-08-12T03:58:00.852Z,84.57
2018-08-12T04:00:32.360Z,83.13
2018-08-12T04:03:03.605Z,84.68
2018-08-12T04:05:36.871Z,83.87
2018-08-12T04:08:10.470Z,83.79
2018-08-12T04:10:43.586Z,83.94
2018-08-12T04:13:16.858Z,85.81
2018-08-12T04:15:48.970Z,83.83
2018-08-12T04:18:21.922Z,84.22
2018-08-12T04:20:56.141Z,84.79
2018-08-12T04:23:29.640Z,84.47
2018-08-12T04:26:03.645Z,84.21
2018-08-12T04:28:35.726Z,82.83
2018-08-12T04:31:08.267Z,84.00
2018-08-12T04:33:38.415Z,83.47
2018-08-12T04:36:08.971Z,83.63
2018-08-12T04:38:41.382Z,82.93
2018-08-12T04:41:11.820Z,83.52
2018-08-12T04:43:45.359Z,83.72
2018-08-12T04:46:18.146Z,82.96
2018-08-12T04:48:49.848Z,83.48
2018-08-12T04:51:22.729Z,82.36
2018-08-12T04:53:54.039Z,82.75
2018-08-12T04:56:26.354Z,82.42
2018-08-12T04:59:00.684Z,82.31
2018-08-12T05:01:31.007Z,81.66
2018-08-12T05:04:04.299Z,82.37
2018-08-12T05:06:37.331Z,81.91
2018-08-12T05:09:15.125Z,81.04
2018-08-12T05:11:45.407Z,81.80
2018-08-12T05:14:16.449Z,81.69
2018-08-12T05:16:52.846Z,81.55
2018-08-12T05:19:26.210Z,81.34
2018-08-12T05:21:58.451Z,81.34
2018-08-12T05:24:28.910Z,81.71
2018-08-12T05:26:59.549Z,80.48
2018-08-12T05:29:30.401Z,81.44
2018-08-12T05:32:02.145Z,80.90
2018-08-12T05:34:33.693Z,79.77
2018-08-12T05:37:04.432Z,80.39
2018-08-12T05:39:35.008Z,80.50
2018-08-12T05:42:06.791Z,80.74
2018-08-12T05:44:36.994Z,78.87
2018-08-12T05:47:07.653Z,79.05
2018-08-12T05:49:39.317Z,79.76
2018-08-12T05:52:13.955Z,78.42
2018-08-12T05:54:47.929Z,79.62
2018-08-12T05:57:20.833Z,79.83
2018-08-12T05:59:51.649Z,79.53
2018-08-12T06:02:22.103Z,79.08
2018-08-12T06:04:54.054Z,79.31
2018-08-12T06:07:26.764Z,78.93
2018-08-12T06:09:57.025Z,79.38
2018-08-12T06:12:27.177Z,78.95
2018-08-12T06:15:01.696Z,78.97
2018-08-12T06:17:34.209Z,78.75
2018-08-12T06:20:08.648Z,78.54
2018-08-12T06:22:40.518Z,79.00
2018-08-12T06:25:14.370Z,78.81
2018-08-12T06:27:48.996Z,78.29
2018-08-12T06:30:21.783Z,78.39
2018-08-12T06:32:54.762Z,77.79
2018-08-12T06:37:59.332Z,77.09
2018-08-12T06:40:29.660Z,76.62
2018-08-12T06:43:03.240Z,76.19
2018-08-12T06:45:37.302Z,76.33
2018-08-12T06:48:11.020Z,75.31
2018-08-12T06:50:41.407Z,75.80
2018-08-12T06:53:24.300Z,74.75
2018-08-12T06:55:56.763Z,74.11
2018-08-12T06:58:29.491Z,74.12
2018-08-12T07:01:00.524Z,73.19
2018-08-12T07:03:31.204Z,73.45
2018-08-12T07:06:03.286Z,72.68
2018-08-12T07:08:36.867Z,72.12
2018-08-12T07:11:10.596Z,69.83
2018-08-12T07:13:41.219Z,70.65
2018-08-12T07:16:12.909Z,68.21
2018-08-12T07:18:43.732Z,66.97
2018-08-12T07:21:15.540Z,67.29
2018-08-12T07:23:46.764Z,65.57
2018-08-12T07:26:17.393Z,64.74
2018-08-12T07:28:54.298Z,64.50
2018-08-12T07:31:27.734Z,62.89
2018-08-12T07:33:58.131Z,62.27
2018-08-12T07:36:28.567Z,61.71
2018-08-12T07:38:59.197Z,62.64
2018-08-12T07:41:31.345Z,63.02
2018-08-12T07:44:03.666Z,62.99
2018-08-12T07:46:36.031Z,62.25
2018-08-12T07:49:08.873Z,62.88
2018-08-12T07:51:39.598Z,63.73
2018-08-12T07:54:10.772Z,63.73
2018-08-12T07:56:44.448Z,62.74
2018-08-12T07:59:15.487Z,62.52
2018-08-12T08:01:46.782Z,61.08
2018-08-12T08:04:18.959Z,61.18
2018-08-12T08:06:49.742Z,60.28
2018-08-12T08:09:20.626Z,60.39
2018-08-12T08:11:51.918Z,62.81
2018-08-12T08:14:26.895Z,61.18
2018-08-12T08:16:57.435Z,61.98
2018-08-12T08:19:27.956Z,61.56
2018-08-12T08:21:59.117Z,61.91
2018-08-12T08:24:30.906Z,62.70
2018-08-12T08:27:04.507Z,61.75
2018-08-12T08:29:41.288Z,62.08
2018-08-12T08:32:15.415Z,61.37
2018-08-12T08:34:45.728Z,61.46
2018-08-12T08:37:18.443Z,60.61
2018-08-12T08:39:49.042Z,59.99
2018-08-12T08:42:19.103Z,58.82
2018-08-12T08:44:50.059Z,60.01
2018-08-12T08:47:20.317Z,59.11
2018-08-12T08:49:52.994Z,58.63
2018-08-12T08:52:23.308Z,57.11
2018-08-12T08:54:56.395Z,58.14
2018-08-12T08:57:29.483Z,57.04
2018-08-12T09:00:02.598Z,58.46
2018-08-12T09:02:36.231Z,57.28
2018-08-12T09:05:10.590Z,57.54
2018-08-12T09:07:41.858Z,58.71
2018-08-12T09:10:14.349Z,56.04
2018-08-12T09:12:48.278Z,55.18
2018-08-12T09:15:21.660Z,60.22
2018-08-12T09:17:52.296Z,56.31
2018-08-12T09:20:24.969Z,54.58
2018-08-12T09:22:56.024Z,54.64
2018-08-12T09:25:26.397Z,52.18
2018-08-12T09:27:57.482Z,53.53
2018-08-12T09:30:27.864Z,51.38
2018-08-12T09:32:58.419Z,49.84
2018-08-12T09:35:30.552Z,50.53
2018-08-12T09:38:03.237Z,50.02
2018-08-12T09:40:38.383Z,49.53
2018-08-12T09:43:12.944Z,48.27
2018-08-12T09:45:44.258Z,47.09
2018-08-12T09:48:18.862Z,47.96
2018-08-12T09:50:50.037Z,46.37
2018-08-12T09:53:23.759Z,46.89
2018-08-12T09:55:56.568Z,47.15
2018-08-12T09:58:29.693Z,46.95
2018-08-12T10:01:00.420Z,48.17
2018-08-12T10:03:32.182Z,46.95
2018-08-12T10:06:02.752Z,46.76
2018-08-12T10:08:33.131Z,47.33
2018-08-12T10:11:04.827Z,46.13
2018-08-12T10:13:35.785Z,45.93
2018-08-12T10:16:09.778Z,45.11
2018-08-12T10:18:40.609Z,45.95
2018-08-12T10:21:11.802Z,47.86
2018-08-12T10:23:44.025Z,45.03
2018-08-12T10:26:15.789Z,45.67
2018-08-12T10:28:46.309Z,42.79
2018-08-12T10:31:17.623Z,43.21
2018-08-12T10:33:48.608Z,41.54
2018-08-12T10:36:23.187Z,42.21
2018-08-12T10:38:55.705Z,39.25
2018-08-12T10:44:08.733Z,38.96
2018-08-12T10:46:41.011Z,38.36
2018-08-12T10:49:15.438Z,39.48
2018-08-12T10:51:47.693Z,41.14
2018-08-12T10:54:19.812Z,40.93
2018-08-12T10:56:52.993Z,41.92
2018-08-12T10:59:28.316Z,41.81
2018-08-12T11:02:01.070Z,42.09
2018-08-12T11:04:31.983Z,42.50
2018-08-12T11:07:03.127Z,40.96
2018-08-12T11:09:34.852Z,40.35
2018-08-12T11:12:08.694Z,40.27
2018-08-12T11:17:23.035Z,42.51
2018-08-12T11:19:53.362Z,42.34
2018-08-12T11:22:23.721Z,42.17
2018-08-12T11:24:57.223Z,43.56
2018-08-12T11:27:32.048Z,41.70
2018-08-12T11:30:03.419Z,41.86
2018-08-12T11:32:33.748Z,41.41
2018-08-12T11:35:05.782Z,40.54
2018-08-12T11:37:38.362Z,42.35
2018-08-12T11:40:18.596Z,40.28
2018-08-12T11:42:49.420Z,40.08
2018-08-12T11:45:22.044Z,41.92
2018-08-12T11:47:56.775Z,42.75
2018-08-12T11:53:21.901Z,42.80
2018-08-12T11:55:53.221Z,42.44
2018-08-12T11:58:23.608Z,42.71
2018-08-12T12:00:54.137Z,44.81
2018-08-12T12:03:24.608Z,45.52
2018-08-12T12:05:56.737Z,46.70
2018-08-12T12:08:27.713Z,48.60
2018-08-12T12:10:58.768Z,48.23
2018-08-12T12:13:29.190Z,48.04
2018-08-12T12:16:03.090Z,48.76
2018-08-12T12:18:42.687Z,50.61
2018-08-12T12:21:14.960Z,52.11
2018-08-12T12:23:46.542Z,52.33
2018-08-12T12:26:18.295Z,53.47
2018-08-12T12:28:49.188Z,53.25
2018-08-12T12:31:21.678Z,54.68
2018-08-12T12:33:53.160Z,54.17
2018-08-12T12:36:24.731Z,53.89
2018-08-12T12:38:56.597Z,53.65
2018-08-12T12:41:28.823Z,53.32
2018-08-12T12:44:01.749Z,52.07
2018-08-12T12:46:35.580Z,53.39
2018-08-12T12:49:06.316Z,53.17
2018-08-12T12:51:38.875Z,53.41
2018-08-12T12:54:09.289Z,53.43
2018-08-12T12:56:39.534Z,55.02
2018-08-12T12:59:10.536Z,56.17
2018-08-12T13:01:41.233Z,56.70
2018-08-12T13:04:14.770Z,56.26
2018-08-12T13:06:45.742Z,56.81
2018-08-12T13:11:49.891Z,54.82
2018-08-12T13:14:20.761Z,55.65
2018-08-12T13:16:51.537Z,54.50
2018-08-12T13:19:22.484Z,55.11
2018-08-12T13:21:57.104Z,55.05
2018-08-12T13:24:27.753Z,55.90
2018-08-12T13:26:58.517Z,55.77
2018-08-12T13:29:30.512Z,57.99
2018-08-12T13:32:03.880Z,55.25
2018-08-12T13:34:35.116Z,56.02
2018-08-12T13:37:08.622Z,55.81
2018-08-12T13:39:44.899Z,55.64
2018-08-12T13:42:16.496Z,55.50
2018-08-12T13:44:50.754Z,55.33
2018-08-12T13:47:26.260Z,56.58
2018-08-12T13:49:57.239Z,55.08
2018-08-12T13:52:28.352Z,56.23
2018-08-12T13:55:00.149Z,55.92
2018-08-12T13:57:30.915Z,55.48
2018-08-12T14:00:05.643Z,56.30
2018-08-12T14:02:36.271Z,56.29
2018-08-12T14:05:08.555Z,56.16
2018-08-12T14:07:39.516Z,57.06
2018-08-12T14:10:11.901Z,60.58
2018-08-12T14:12:47.736Z,59.41
2018-08-12T14:15:21.972Z,60.24
2018-08-12T14:17:57.134Z,62.68
2018-08-12T14:20:29.078Z,63.20
2018-08-12T14:23:01.363Z,63.63
2018-08-12T14:25:32.784Z,65.44
2018-08-12T14:28:03.525Z,66.28
2018-08-12T14:30:34.003Z,68.50
2018-08-12T14:33:06.115Z,68.89
2018-08-12T14:35:36.743Z,69.03
2018-08-12T14:38:08.711Z,67.66
2018-08-12T14:40:39.287Z,67.16
2018-08-12T14:43:09.775Z,66.34
2018-08-12T14:45:40.039Z,65.79
2018-08-12T14:48:11.341Z,65.60
2018-08-12T14:50:45.989Z,64.22
2018-08-12T14:53:16.544Z,63.67
2018-08-12T14:55:47.423Z,63.06
2018-08-12T14:58:18.099Z,63.89
2018-08-12T15:00:48.516Z,63.24
2018-08-12T15:03:25.413Z,62.95
2018-08-12T15:05:58.546Z,62.44
2018-08-12T15:08:29.278Z,62.30
2018-08-12T15:10:59.977Z,61.32
2018-08-12T15:13:30.365Z,62.18
2018-08-12T15:16:02.915Z,60.61
2018-08-12T15:18:36.441Z,61.77
2018-08-12T15:21:08.069Z,61.51
2018-08-12T15:26:26.030Z,60.99
2018-08-12T15:28:58.197Z,61.17
2018-08-12T15:31:28.734Z,61.73
2018-08-12T15:36:46.196Z,61.61
2018-08-12T15:39:18.890Z,60.71
2018-08-12T15:41:49.934Z,61.16
2018-08-12T15:44:21.635Z,60.89
2018-08-12T15:49:50.231Z,61.04
2018-08-12T15:52:23.215Z,60.29
2018-08-12T15:54:54.724Z,59.94
2018-08-12T15:57:29.085Z,59.38
2018-08-12T16:00:02.247Z,60.22
2018-08-12T16:02:36.750Z,59.37
2018-08-12T16:05:10.403Z,58.83
2018-08-12T16:07:43.785Z,60.15
2018-08-12T16:10:20.997Z,60.18
2018-08-12T16:12:53.664Z,59.51
2018-08-12T16:15:24.501Z,60.25
2018-08-12T16:17:54.955Z,58.50
2018-08-12T16:20:25.289Z,57.99
2018-08-12T16:22:55.992Z,57.76
2018-08-12T16:25:29.026Z,57.42
2018-08-12T16:28:00.055Z,58.54
2018-08-12T16:30:33.063Z,57.41
2018-08-12T16:33:03.577Z,57.97
2018-08-12T16:35:36.009Z,58.06
2018-08-12T16:38:06.898Z,57.61
2018-08-12T16:40:38.182Z,57.44
2018-08-12T16:43:08.655Z,58.12
2018-08-12T16:45:39.503Z,57.27
2018-08-12T16:48:10.115Z,57.88
2018-08-12T16:50:43.193Z,57.18
2018-08-12T16:53:14.116Z,57.68
2018-08-12T16:55:44.666Z,56.85
2018-08-12T16:58:17.172Z,57.31
2018-08-12T17:00:49.988Z,57.85
2018-08-12T17:03:20.564Z,56.94
2018-08-12T17:05:53.141Z,57.25
2018-08-12T17:08:23.562Z,57.37
2018-08-12T17:10:56.354Z,58.99
2018-08-12T17:13:28.677Z,56.31
2018-08-12T17:16:08.568Z,59.07
2018-08-12T17:18:39.447Z,59.35
2018-08-12T17:21:12.840Z,57.07
2018-08-12T17:23:43.359Z,56.67
2018-08-12T17:26:13.910Z,57.50
2018-08-12T17:28:44.556Z,56.54
2018-08-12T17:31:23.419Z,57.95
2018-08-12T17:33:54.979Z,58.27
2018-08-12T17:36:27.110Z,57.26
2018-08-12T17:38:57.599Z,58.16
2018-08-12T17:41:34.853Z,57.09
2018-08-12T17:44:07.773Z,59.52
2018-08-12T17:46:41.755Z,60.45
2018-08-12T17:49:13.867Z,58.53
2018-08-12T17:51:45.093Z,56.94
2018-08-12T17:54:19.531Z,56.28
2018-08-12T17:56:50.756Z,57.13
2018-08-12T17:59:23.951Z,57.58
2018-08-12T18:01:54.444Z,59.12
2018-08-12T18:04:25.677Z,56.15
2018-08-12T18:06:58.263Z,56.18
2018-08-12T18:09:29.282Z,57.48
2018-08-12T18:12:00.129Z,58.31
2018-08-12T18:14:31.311Z,57.55
2018-08-12T18:17:03.382Z,56.69
2018-08-12T18:19:35.414Z,57.47
2018-08-12T18:22:13.675Z,56.74
2018-08-12T18:24:45.567Z,58.17
2018-08-12T18:27:16.538Z,57.63
2018-08-12T18:29:47.358Z,59.12
2018-08-12T18:32:19.984Z,59.44
2018-08-12T18:34:54.615Z,59.82
2018-08-12T18:37:27.670Z,61.51
2018-08-12T18:39:59.567Z,60.84
2018-08-12T18:42:30.826Z,61.62
2018-08-12T18:45:03.472Z,62.28
2018-08-12T18:47:35.830Z,61.34
2018-08-12T18:50:12.349Z,63.03
2018-08-12T18:52:44.823Z,64.04
2018-08-12T18:55:15.458Z,62.95
2018-08-12T18:57:46.637Z,64.68
2018-08-12T19:00:17.687Z,64.70
2018-08-12T19:02:52.261Z,65.98
2018-08-12T19:05:22.741Z,66.34
2018-08-12T19:07:56.776Z,66.61
2018-08-12T19:10:27.434Z,68.48
2018-08-12T19:12:59.703Z,68.50
2018-08-12T19:15:31.882Z,69.10
2018-08-12T19:18:02.523Z,68.73
2018-08-12T19:20:34.786Z,69.12
2018-08-12T19:23:06.384Z,69.47
2018-08-12T19:25:38.297Z,69.98
2018-08-12T19:28:11.910Z,69.92
2018-08-12T19:30:43.500Z,70.00
2018-08-12T19:33:16.177Z,71.06
2018-08-12T19:35:47.131Z,71.40
2018-08-12T19:38:19.023Z,71.07
2018-08-12T19:40:50.589Z,72.91
2018-08-12T19:43:23.624Z,73.30
2018-08-12T19:45:54.660Z,70.99
2018-08-12T19:48:36.828Z,71.45
2018-08-12T19:51:14.287Z,71.69
2018-08-12T19:53:51.585Z,72.68
2018-08-12T19:56:28.577Z,72.27
2018-08-12T19:59:04.612Z,71.40
2018-08-12T20:01:37.829Z,72.00
2018-08-12T20:06:56.116Z,71.52
2018-08-12T20:09:31.269Z,74.18
2018-08-12T20:12:15.813Z,73.51
2018-08-12T20:14:51.355Z,71.70
2018-08-12T20:17:28.808Z,72.24
2018-08-12T20:23:00.886Z,72.40
2018-08-12T20:25:53.589Z,73.12
2018-08-12T20:28:27.803Z,72.87
2018-08-12T20:31:00.412Z,72.11
2018-08-12T20:33:34.450Z,71.50
2018-08-12T20:41:48.902Z,72.48
2018-08-12T20:44:21.413Z,71.79
2018-08-12T20:46:53.040Z,72.27
2018-08-12T20:49:29.040Z,72.72
2018-08-12T20:52:02.518Z,72.35
2018-08-12T20:54:33.278Z,71.19
2018-08-12T20:57:05.336Z,72.33
2018-08-12T20:59:38.737Z,71.38
2018-08-12T21:08:15.712Z,69.45
2018-08-12T21:10:46.604Z,70.55
2018-08-12T21:13:21.967Z,70.74
2018-08-12T21:18:40.761Z,70.32
2018-08-12T21:21:18.265Z,70.40
2018-08-12T21:23:52.366Z,70.33
2018-08-12T21:29:19.943Z,70.74
2018-08-12T21:34:32.658Z,69.23
2018-08-12T21:37:09.261Z,71.08
2018-08-12T21:39:40.713Z,70.95
2018-08-12T21:42:11.569Z,71.27
2018-08-12T21:44:43.705Z,70.53
2018-08-12T21:47:14.700Z,72.24
2018-08-12T21:49:47.323Z,70.01
2018-08-12T21:52:24.024Z,70.21
2018-08-12T21:55:07.459Z,71.10
2018-08-12T21:57:44.653Z,72.86
2018-08-12T22:00:18.921Z,70.50
2018-08-12T22:02:56.309Z,69.14
2018-08-12T22:05:30.305Z,72.68
2018-08-12T22:11:17.592Z,73.12
2018-08-12T22:17:03.257Z,75.01
2018-08-12T22:32:37.306Z,76.51
2018-08-12T22:38:40.857Z,77.96
2018-08-12T23:11:15.335Z,79.25
2018-08-12T23:19:42.453Z,79.02
2018-08-12T23:22:23.045Z,78.26
2018-08-12T23:25:18.584Z,76.59
2018-08-12T23:27:51.098Z,80.16
2018-08-12T23:30:30.143Z,80.74
2018-08-12T23:33:02.204Z,80.30
2018-08-12T23:38:38.594Z,80.77
2018-08-12T23:44:17.337Z,81.29
2018-08-12T23:47:07.320Z,80.40
